sensor_id;sensor_type;location;lat;lon;timestamp;P1;durP1;ratioP1;P2;durP2;ratioP2
6095;SDS011;25081;42.698;23.298;2022-10-16T00:00:58;16.30;;;8.80;;
6095;SDS011;25081;42.698;23.298;2022-10-16T00:03:09;11.75;;;8.95;;
6095;SDS011;25081;42.698;23.298;2022-10-16T00:05:19;13.50;;;8.68;;
6095;SDS011;25081;42.698;23.298;2022-10-16T00:07:29;12.37;;;8.80;;
6095;SDS011;25081;42.698;23.298;2022-10-16T00:09:40;13.75;;;9.05;;
6095;SDS011;25081;42.698;23.298;2022-10-16T00:11:50;12.20;;;9.10;;
6095;SDS011;25081;42.698;23.298;2022-10-16T00:14:02;11.20;;;8.08;;
6095;SDS011;25081;42.698;23.298;2022-10-16T00:16:12;13.53;;;8.28;;
6095;SDS011;25081;42.698;23.298;2022-10-16T00:18:22;10.58;;;7.45;;
6095;SDS011;25081;42.698;23.298;2022-10-16T00:20:34;21.40;;;8.85;;
6095;SDS011;25081;42.698;23.298;2022-10-16T00:22:45;13.68;;;8.50;;
6095;SDS011;25081;42.698;23.298;2022-10-16T00:24:55;10.00;;;7.50;;
6095;SDS011;25081;42.698;23.298;2022-10-16T00:27:06;12.43;;;7.95;;
6095;SDS011;25081;42.698;23.298;2022-10-16T00:29:16;13.55;;;9.28;;
6095;SDS011;25081;42.698;23.298;2022-10-16T00:31:27;14.43;;;8.05;;
6095;SDS011;25081;42.698;23.298;2022-10-16T00:33:38;15.63;;;8.50;;
6095;SDS011;25081;42.698;23.298;2022-10-16T00:35:48;12.40;;;7.90;;
6095;SDS011;25081;42.698;23.298;2022-10-16T00:37:59;10.85;;;7.30;;
6095;SDS011;25081;42.698;23.298;2022-10-16T00:40:10;13.18;;;7.50;;
6095;SDS011;25081;42.698;23.298;2022-10-16T00:42:21;13.68;;;8.18;;
6095;SDS011;25081;42.698;23.298;2022-10-16T00:44:45;11.33;;;7.72;;
6095;SDS011;25081;42.698;23.298;2022-10-16T00:46:55;12.98;;;7.20;;
6095;SDS011;25081;42.698;23.298;2022-10-16T00:49:06;8.13;;;6.80;;
6095;SDS011;25081;42.698;23.298;2022-10-16T00:51:17;10.28;;;7.00;;
6095;SDS011;25081;42.698;23.298;2022-10-16T00:53:28;14.53;;;7.92;;
6095;SDS011;25081;42.698;23.298;2022-10-16T00:55:38;12.20;;;7.67;;
6095;SDS011;25081;42.698;23.298;2022-10-16T00:57:49;14.23;;;7.37;;
6095;SDS011;25081;42.698;23.298;2022-10-16T00:59:59;12.00;;;7.85;;
6095;SDS011;25081;42.698;23.298;2022-10-16T01:02:13;10.48;;;7.50;;
6095;SDS011;25081;42.698;23.298;2022-10-16T01:04:20;13.88;;;7.67;;
6095;SDS011;25081;42.698;23.298;2022-10-16T01:06:32;10.03;;;6.83;;
6095;SDS011;25081;42.698;23.298;2022-10-16T01:08:47;10.53;;;7.47;;
6095;SDS011;25081;42.698;23.298;2022-10-16T01:10:59;10.78;;;6.90;;
6095;SDS011;25081;42.698;23.298;2022-10-16T01:13:09;10.90;;;6.97;;
6095;SDS011;25081;42.698;23.298;2022-10-16T01:15:21;9.00;;;6.97;;
6095;SDS011;25081;42.698;23.298;2022-10-16T01:17:32;10.80;;;7.17;;
6095;SDS011;25081;42.698;23.298;2022-10-16T01:19:50;14.23;;;7.05;;
6095;SDS011;25081;42.698;23.298;2022-10-16T01:22:00;9.68;;;6.80;;
6095;SDS011;25081;42.698;23.298;2022-10-16T01:24:15;16.60;;;7.60;;
6095;SDS011;25081;42.698;23.298;2022-10-16T01:26:33;10.70;;;6.75;;
6095;SDS011;25081;42.698;23.298;2022-10-16T01:28:47;10.13;;;7.03;;
6095;SDS011;25081;42.698;23.298;2022-10-16T01:30:57;11.80;;;7.60;;
6095;SDS011;25081;42.698;23.298;2022-10-16T01:33:08;14.07;;;7.50;;
6095;SDS011;25081;42.698;23.298;2022-10-16T01:35:19;10.85;;;7.33;;
6095;SDS011;25081;42.698;23.298;2022-10-16T01:37:31;13.35;;;8.28;;
6095;SDS011;25081;42.698;23.298;2022-10-16T01:39:42;10.63;;;7.37;;
6095;SDS011;25081;42.698;23.298;2022-10-16T01:41:54;9.93;;;7.30;;
6095;SDS011;25081;42.698;23.298;2022-10-16T01:44:04;10.32;;;7.17;;
6095;SDS011;25081;42.698;23.298;2022-10-16T01:46:14;13.18;;;8.33;;
6095;SDS011;25081;42.698;23.298;2022-10-16T01:48:24;11.60;;;7.25;;
6095;SDS011;25081;42.698;23.298;2022-10-16T01:50:35;10.23;;;6.90;;
6095;SDS011;25081;42.698;23.298;2022-10-16T01:52:46;11.65;;;7.30;;
6095;SDS011;25081;42.698;23.298;2022-10-16T01:54:56;13.75;;;8.70;;
6095;SDS011;25081;42.698;23.298;2022-10-16T01:57:07;12.28;;;8.13;;
6095;SDS011;25081;42.698;23.298;2022-10-16T01:59:18;11.03;;;7.78;;
6095;SDS011;25081;42.698;23.298;2022-10-16T02:01:28;15.95;;;8.33;;
6095;SDS011;25081;42.698;23.298;2022-10-16T02:03:38;16.27;;;9.08;;
6095;SDS011;25081;42.698;23.298;2022-10-16T02:05:50;14.07;;;8.85;;
6095;SDS011;25081;42.698;23.298;2022-10-16T02:08:00;14.43;;;8.75;;
6095;SDS011;25081;42.698;23.298;2022-10-16T02:10:10;17.57;;;8.73;;
6095;SDS011;25081;42.698;23.298;2022-10-16T02:12:23;11.80;;;8.55;;
6095;SDS011;25081;42.698;23.298;2022-10-16T02:14:32;16.42;;;9.43;;
6095;SDS011;25081;42.698;23.298;2022-10-16T02:16:43;13.13;;;8.70;;
6095;SDS011;25081;42.698;23.298;2022-10-16T02:18:53;15.23;;;8.30;;
6095;SDS011;25081;42.698;23.298;2022-10-16T02:21:05;12.53;;;8.75;;
6095;SDS011;25081;42.698;23.298;2022-10-16T02:23:16;14.10;;;8.75;;
6095;SDS011;25081;42.698;23.298;2022-10-16T02:25:27;10.95;;;7.97;;
6095;SDS011;25081;42.698;23.298;2022-10-16T02:27:37;12.90;;;8.08;;
6095;SDS011;25081;42.698;23.298;2022-10-16T02:29:47;15.35;;;8.35;;
6095;SDS011;25081;42.698;23.298;2022-10-16T02:31:58;15.30;;;8.35;;
6095;SDS011;25081;42.698;23.298;2022-10-16T02:34:08;11.80;;;7.92;;
6095;SDS011;25081;42.698;23.298;2022-10-16T02:36:19;11.40;;;6.80;;
6095;SDS011;25081;42.698;23.298;2022-10-16T02:38:29;17.70;;;9.23;;
6095;SDS011;25081;42.698;23.298;2022-10-16T02:40:40;12.78;;;9.30;;
6095;SDS011;25081;42.698;23.298;2022-10-16T02:42:51;14.43;;;8.05;;
6095;SDS011;25081;42.698;23.298;2022-10-16T02:45:01;14.90;;;8.10;;
6095;SDS011;25081;42.698;23.298;2022-10-16T02:47:11;17.48;;;9.00;;
6095;SDS011;25081;42.698;23.298;2022-10-16T02:49:22;14.13;;;8.83;;
6095;SDS011;25081;42.698;23.298;2022-10-16T02:51:32;11.40;;;7.70;;
6095;SDS011;25081;42.698;23.298;2022-10-16T02:53:43;13.93;;;8.03;;
6095;SDS011;25081;42.698;23.298;2022-10-16T02:55:53;13.83;;;7.45;;
6095;SDS011;25081;42.698;23.298;2022-10-16T02:58:04;15.90;;;9.03;;
6095;SDS011;25081;42.698;23.298;2022-10-16T03:00:15;15.80;;;8.25;;
6095;SDS011;25081;42.698;23.298;2022-10-16T03:02:25;13.25;;;8.73;;
6095;SDS011;25081;42.698;23.298;2022-10-16T03:04:36;17.77;;;9.28;;
6095;SDS011;25081;42.698;23.298;2022-10-16T03:06:46;15.93;;;9.63;;
6095;SDS011;25081;42.698;23.298;2022-10-16T03:08:57;27.17;;;9.60;;
6095;SDS011;25081;42.698;23.298;2022-10-16T03:11:07;13.62;;;9.15;;
6095;SDS011;25081;42.698;23.298;2022-10-16T03:13:18;15.45;;;10.38;;
6095;SDS011;25081;42.698;23.298;2022-10-16T03:15:29;24.47;;;11.57;;
6095;SDS011;25081;42.698;23.298;2022-10-16T03:17:39;17.10;;;10.80;;
6095;SDS011;25081;42.698;23.298;2022-10-16T03:19:50;15.32;;;10.08;;
6095;SDS011;25081;42.698;23.298;2022-10-16T03:22:00;15.55;;;10.43;;
6095;SDS011;25081;42.698;23.298;2022-10-16T03:24:11;15.20;;;10.20;;
6095;SDS011;25081;42.698;23.298;2022-10-16T03:26:21;16.23;;;9.38;;
6095;SDS011;25081;42.698;23.298;2022-10-16T03:28:32;16.25;;;9.00;;
6095;SDS011;25081;42.698;23.298;2022-10-16T03:30:43;14.43;;;8.50;;
6095;SDS011;25081;42.698;23.298;2022-10-16T03:32:54;14.68;;;7.40;;
6095;SDS011;25081;42.698;23.298;2022-10-16T03:35:05;10.82;;;7.35;;
6095;SDS011;25081;42.698;23.298;2022-10-16T03:37:16;11.60;;;7.10;;
6095;SDS011;25081;42.698;23.298;2022-10-16T03:39:26;12.25;;;8.53;;
6095;SDS011;25081;42.698;23.298;2022-10-16T03:41:37;13.00;;;8.55;;
6095;SDS011;25081;42.698;23.298;2022-10-16T03:43:47;12.10;;;7.87;;
6095;SDS011;25081;42.698;23.298;2022-10-16T03:45:58;15.65;;;8.78;;
6095;SDS011;25081;42.698;23.298;2022-10-16T03:48:08;13.80;;;10.50;;
6095;SDS011;25081;42.698;23.298;2022-10-16T03:50:19;11.93;;;8.55;;
6095;SDS011;25081;42.698;23.298;2022-10-16T03:52:29;19.90;;;9.70;;
6095;SDS011;25081;42.698;23.298;2022-10-16T03:54:40;16.30;;;8.85;;
6095;SDS011;25081;42.698;23.298;2022-10-16T03:56:51;13.38;;;9.13;;
6095;SDS011;25081;42.698;23.298;2022-10-16T03:59:01;14.28;;;9.38;;
6095;SDS011;25081;42.698;23.298;2022-10-16T04:01:12;16.10;;;10.05;;
6095;SDS011;25081;42.698;23.298;2022-10-16T04:03:22;18.70;;;10.05;;
6095;SDS011;25081;42.698;23.298;2022-10-16T04:05:33;13.45;;;10.20;;
6095;SDS011;25081;42.698;23.298;2022-10-16T04:07:43;15.68;;;9.45;;
6095;SDS011;25081;42.698;23.298;2022-10-16T04:09:54;17.98;;;10.40;;
6095;SDS011;25081;42.698;23.298;2022-10-16T04:12:04;12.85;;;9.08;;
6095;SDS011;25081;42.698;23.298;2022-10-16T04:14:15;18.23;;;10.30;;
6095;SDS011;25081;42.698;23.298;2022-10-16T04:16:25;17.62;;;10.90;;
6095;SDS011;25081;42.698;23.298;2022-10-16T04:18:36;17.92;;;10.70;;
6095;SDS011;25081;42.698;23.298;2022-10-16T04:20:46;15.95;;;10.45;;
6095;SDS011;25081;42.698;23.298;2022-10-16T04:22:57;19.87;;;10.70;;
6095;SDS011;25081;42.698;23.298;2022-10-16T04:25:08;14.90;;;9.28;;
6095;SDS011;25081;42.698;23.298;2022-10-16T04:27:18;21.82;;;10.78;;
6095;SDS011;25081;42.698;23.298;2022-10-16T04:29:29;17.55;;;10.90;;
6095;SDS011;25081;42.698;23.298;2022-10-16T04:31:39;22.02;;;12.13;;
6095;SDS011;25081;42.698;23.298;2022-10-16T04:33:50;21.12;;;10.95;;
6095;SDS011;25081;42.698;23.298;2022-10-16T04:36:01;16.95;;;11.35;;
6095;SDS011;25081;42.698;23.298;2022-10-16T04:38:11;19.23;;;12.20;;
6095;SDS011;25081;42.698;23.298;2022-10-16T04:40:21;42.62;;;19.80;;
6095;SDS011;25081;42.698;23.298;2022-10-16T04:42:32;43.20;;;20.45;;
6095;SDS011;25081;42.698;23.298;2022-10-16T04:44:42;51.28;;;23.20;;
6095;SDS011;25081;42.698;23.298;2022-10-16T04:46:53;39.73;;;20.97;;
6095;SDS011;25081;42.698;23.298;2022-10-16T04:49:03;31.68;;;16.85;;
6095;SDS011;25081;42.698;23.298;2022-10-16T04:51:14;42.00;;;19.05;;
6095;SDS011;25081;42.698;23.298;2022-10-16T04:53:25;30.20;;;16.37;;
6095;SDS011;25081;42.698;23.298;2022-10-16T04:55:35;25.08;;;14.10;;
6095;SDS011;25081;42.698;23.298;2022-10-16T04:57:46;21.75;;;13.05;;
6095;SDS011;25081;42.698;23.298;2022-10-16T04:59:56;26.50;;;14.05;;
6095;SDS011;25081;42.698;23.298;2022-10-16T05:02:07;23.98;;;14.00;;
6095;SDS011;25081;42.698;23.298;2022-10-16T05:04:17;30.88;;;14.73;;
6095;SDS011;25081;42.698;23.298;2022-10-16T05:06:28;20.65;;;14.40;;
6095;SDS011;25081;42.698;23.298;2022-10-16T05:08:38;24.60;;;13.30;;
6095;SDS011;25081;42.698;23.298;2022-10-16T05:10:49;28.02;;;13.83;;
6095;SDS011;25081;42.698;23.298;2022-10-16T05:12:59;23.98;;;14.13;;
6095;SDS011;25081;42.698;23.298;2022-10-16T05:15:10;22.48;;;14.33;;
6095;SDS011;25081;42.698;23.298;2022-10-16T05:17:21;29.55;;;14.73;;
6095;SDS011;25081;42.698;23.298;2022-10-16T05:19:31;26.45;;;15.23;;
6095;SDS011;25081;42.698;23.298;2022-10-16T05:21:42;27.82;;;15.20;;
6095;SDS011;25081;42.698;23.298;2022-10-16T05:23:53;29.77;;;15.50;;
6095;SDS011;25081;42.698;23.298;2022-10-16T05:26:04;22.20;;;12.68;;
6095;SDS011;25081;42.698;23.298;2022-10-16T05:28:14;26.62;;;14.07;;
6095;SDS011;25081;42.698;23.298;2022-10-16T05:30:25;21.87;;;14.00;;
6095;SDS011;25081;42.698;23.298;2022-10-16T05:32:35;18.40;;;11.83;;
6095;SDS011;25081;42.698;23.298;2022-10-16T05:34:46;18.87;;;12.03;;
6095;SDS011;25081;42.698;23.298;2022-10-16T05:36:57;23.80;;;11.65;;
6095;SDS011;25081;42.698;23.298;2022-10-16T05:39:07;26.75;;;11.75;;
6095;SDS011;25081;42.698;23.298;2022-10-16T05:41:18;17.48;;;11.33;;
6095;SDS011;25081;42.698;23.298;2022-10-16T05:43:28;18.98;;;12.35;;
6095;SDS011;25081;42.698;23.298;2022-10-16T05:45:38;17.85;;;12.65;;
6095;SDS011;25081;42.698;23.298;2022-10-16T05:47:49;17.23;;;11.60;;
6095;SDS011;25081;42.698;23.298;2022-10-16T05:49:59;15.58;;;10.30;;
6095;SDS011;25081;42.698;23.298;2022-10-16T05:52:10;17.40;;;10.70;;
6095;SDS011;25081;42.698;23.298;2022-10-16T05:54:20;19.85;;;10.35;;
6095;SDS011;25081;42.698;23.298;2022-10-16T05:56:31;11.88;;;9.23;;
6095;SDS011;25081;42.698;23.298;2022-10-16T05:58:41;14.25;;;9.88;;
6095;SDS011;25081;42.698;23.298;2022-10-16T06:00:56;16.87;;;9.48;;
6095;SDS011;25081;42.698;23.298;2022-10-16T06:03:06;14.13;;;9.40;;
6095;SDS011;25081;42.698;23.298;2022-10-16T06:05:18;21.75;;;10.48;;
6095;SDS011;25081;42.698;23.298;2022-10-16T06:07:28;18.87;;;10.35;;
6095;SDS011;25081;42.698;23.298;2022-10-16T06:09:39;15.55;;;9.40;;
6095;SDS011;25081;42.698;23.298;2022-10-16T06:11:49;15.00;;;10.60;;
6095;SDS011;25081;42.698;23.298;2022-10-16T06:14:00;18.77;;;10.35;;
6095;SDS011;25081;42.698;23.298;2022-10-16T06:16:10;15.83;;;8.98;;
6095;SDS011;25081;42.698;23.298;2022-10-16T06:18:21;19.12;;;10.58;;
6095;SDS011;25081;42.698;23.298;2022-10-16T06:20:31;15.18;;;9.23;;
6095;SDS011;25081;42.698;23.298;2022-10-16T06:22:42;11.18;;;9.03;;
6095;SDS011;25081;42.698;23.298;2022-10-16T06:24:52;14.85;;;9.50;;
6095;SDS011;25081;42.698;23.298;2022-10-16T06:27:03;18.52;;;10.58;;
6095;SDS011;25081;42.698;23.298;2022-10-16T06:29:14;15.38;;;10.50;;
6095;SDS011;25081;42.698;23.298;2022-10-16T06:31:25;14.68;;;9.20;;
6095;SDS011;25081;42.698;23.298;2022-10-16T06:33:35;14.93;;;9.35;;
6095;SDS011;25081;42.698;23.298;2022-10-16T06:35:45;16.32;;;9.85;;
6095;SDS011;25081;42.698;23.298;2022-10-16T06:37:56;14.03;;;9.60;;
6095;SDS011;25081;42.698;23.298;2022-10-16T06:40:08;12.90;;;9.95;;
6095;SDS011;25081;42.698;23.298;2022-10-16T06:42:18;13.00;;;9.20;;
6095;SDS011;25081;42.698;23.298;2022-10-16T06:44:29;17.80;;;10.10;;
6095;SDS011;25081;42.698;23.298;2022-10-16T06:46:39;17.77;;;10.23;;
6095;SDS011;25081;42.698;23.298;2022-10-16T06:48:50;15.83;;;9.75;;
6095;SDS011;25081;42.698;23.298;2022-10-16T06:51:01;13.95;;;9.10;;
6095;SDS011;25081;42.698;23.298;2022-10-16T06:53:11;16.07;;;9.80;;
6095;SDS011;25081;42.698;23.298;2022-10-16T06:55:21;14.85;;;9.85;;
6095;SDS011;25081;42.698;23.298;2022-10-16T06:57:32;13.15;;;9.15;;
6095;SDS011;25081;42.698;23.298;2022-10-16T06:59:42;11.93;;;9.57;;
6095;SDS011;25081;42.698;23.298;2022-10-16T07:01:53;14.68;;;9.23;;
6095;SDS011;25081;42.698;23.298;2022-10-16T07:04:03;11.70;;;8.35;;
6095;SDS011;25081;42.698;23.298;2022-10-16T07:06:14;19.15;;;9.30;;
6095;SDS011;25081;42.698;23.298;2022-10-16T07:08:24;12.87;;;8.37;;
6095;SDS011;25081;42.698;23.298;2022-10-16T07:10:35;12.17;;;8.67;;
6095;SDS011;25081;42.698;23.298;2022-10-16T07:12:46;10.40;;;7.87;;
6095;SDS011;25081;42.698;23.298;2022-10-16T07:14:56;9.37;;;7.40;;
6095;SDS011;25081;42.698;23.298;2022-10-16T07:17:07;11.07;;;7.50;;
6095;SDS011;25081;42.698;23.298;2022-10-16T07:19:17;12.80;;;7.33;;
6095;SDS011;25081;42.698;23.298;2022-10-16T07:21:29;12.50;;;8.07;;
6095;SDS011;25081;42.698;23.298;2022-10-16T07:23:38;11.83;;;8.03;;
6095;SDS011;25081;42.698;23.298;2022-10-16T07:25:54;12.03;;;8.27;;
6095;SDS011;25081;42.698;23.298;2022-10-16T07:28:04;10.50;;;8.47;;
6095;SDS011;25081;42.698;23.298;2022-10-16T07:30:15;10.23;;;8.27;;
6095;SDS011;25081;42.698;23.298;2022-10-16T07:32:26;11.60;;;8.10;;
6095;SDS011;25081;42.698;23.298;2022-10-16T07:34:36;9.13;;;8.10;;
6095;SDS011;25081;42.698;23.298;2022-10-16T07:36:48;9.43;;;8.27;;
6095;SDS011;25081;42.698;23.298;2022-10-16T07:38:58;11.60;;;8.50;;
6095;SDS011;25081;42.698;23.298;2022-10-16T07:41:10;11.60;;;8.00;;
6095;SDS011;25081;42.698;23.298;2022-10-16T07:43:20;9.77;;;7.77;;
6095;SDS011;25081;42.698;23.298;2022-10-16T07:45:31;10.00;;;8.00;;
6095;SDS011;25081;42.698;23.298;2022-10-16T07:47:41;10.87;;;9.17;;
6095;SDS011;25081;42.698;23.298;2022-10-16T07:49:52;9.30;;;8.20;;
6095;SDS011;25081;42.698;23.298;2022-10-16T07:52:02;10.73;;;9.60;;
6095;SDS011;25081;42.698;23.298;2022-10-16T07:54:13;10.10;;;8.30;;
6095;SDS011;25081;42.698;23.298;2022-10-16T07:56:23;12.20;;;9.40;;
6095;SDS011;25081;42.698;23.298;2022-10-16T07:58:34;12.70;;;9.87;;
6095;SDS011;25081;42.698;23.298;2022-10-16T08:00:45;10.73;;;9.23;;
6095;SDS011;25081;42.698;23.298;2022-10-16T08:02:57;11.70;;;8.90;;
6095;SDS011;25081;42.698;23.298;2022-10-16T08:05:09;16.10;;;10.00;;
6095;SDS011;25081;42.698;23.298;2022-10-16T08:07:19;14.10;;;11.10;;
6095;SDS011;25081;42.698;23.298;2022-10-16T08:09:30;15.27;;;11.23;;
6095;SDS011;25081;42.698;23.298;2022-10-16T08:11:40;15.03;;;11.00;;
6095;SDS011;25081;42.698;23.298;2022-10-16T08:13:51;14.80;;;10.37;;
6095;SDS011;25081;42.698;23.298;2022-10-16T08:16:01;11.00;;;9.00;;
6095;SDS011;25081;42.698;23.298;2022-10-16T08:18:13;10.20;;;9.07;;
6095;SDS011;25081;42.698;23.298;2022-10-16T08:20:23;10.67;;;8.70;;
6095;SDS011;25081;42.698;23.298;2022-10-16T08:22:33;8.77;;;7.27;;
6095;SDS011;25081;42.698;23.298;2022-10-16T08:24:44;7.87;;;6.80;;
6095;SDS011;25081;42.698;23.298;2022-10-16T08:26:54;8.90;;;5.90;;
6095;SDS011;25081;42.698;23.298;2022-10-16T08:29:05;9.10;;;6.87;;
6095;SDS011;25081;42.698;23.298;2022-10-16T08:31:15;7.00;;;5.60;;
6095;SDS011;25081;42.698;23.298;2022-10-16T08:33:26;7.93;;;6.20;;
6095;SDS011;25081;42.698;23.298;2022-10-16T08:35:36;7.27;;;6.50;;
6095;SDS011;25081;42.698;23.298;2022-10-16T08:37:47;5.50;;;4.80;;
6095;SDS011;25081;42.698;23.298;2022-10-16T08:39:58;11.20;;;6.07;;
6095;SDS011;25081;42.698;23.298;2022-10-16T08:42:16;8.93;;;6.23;;
6095;SDS011;25081;42.698;23.298;2022-10-16T08:47:25;6.20;;;5.53;;
6095;SDS011;25081;42.698;23.298;2022-10-16T08:49:36;7.60;;;6.27;;
6095;SDS011;25081;42.698;23.298;2022-10-16T08:51:46;6.90;;;5.40;;
6095;SDS011;25081;42.698;23.298;2022-10-16T08:53:58;8.00;;;5.77;;
6095;SDS011;25081;42.698;23.298;2022-10-16T08:56:08;10.47;;;6.20;;
6095;SDS011;25081;42.698;23.298;2022-10-16T08:58:20;7.60;;;6.30;;
6095;SDS011;25081;42.698;23.298;2022-10-16T09:00:29;8.80;;;6.53;;
6095;SDS011;25081;42.698;23.298;2022-10-16T09:02:40;7.43;;;4.77;;
6095;SDS011;25081;42.698;23.298;2022-10-16T09:07:38;5.23;;;3.73;;
6095;SDS011;25081;42.698;23.298;2022-10-16T09:09:56;6.70;;;4.20;;
6095;SDS011;25081;42.698;23.298;2022-10-16T09:12:15;5.60;;;3.77;;
6095;SDS011;25081;42.698;23.298;2022-10-16T09:14:32;6.60;;;4.10;;
6095;SDS011;25081;42.698;23.298;2022-10-16T09:16:46;8.90;;;4.17;;
6095;SDS011;25081;42.698;23.298;2022-10-16T09:18:58;5.07;;;3.77;;
6095;SDS011;25081;42.698;23.298;2022-10-16T09:21:09;6.40;;;4.13;;
6095;SDS011;25081;42.698;23.298;2022-10-16T09:23:21;8.80;;;3.83;;
6095;SDS011;25081;42.698;23.298;2022-10-16T09:25:31;5.10;;;3.73;;
6095;SDS011;25081;42.698;23.298;2022-10-16T09:27:42;4.73;;;3.50;;
6095;SDS011;25081;42.698;23.298;2022-10-16T09:29:53;7.57;;;3.70;;
6095;SDS011;25081;42.698;23.298;2022-10-16T09:32:09;5.53;;;3.83;;
6095;SDS011;25081;42.698;23.298;2022-10-16T09:34:21;4.10;;;3.53;;
6095;SDS011;25081;42.698;23.298;2022-10-16T09:36:32;5.13;;;3.63;;
6095;SDS011;25081;42.698;23.298;2022-10-16T09:38:42;6.23;;;4.10;;
6095;SDS011;25081;42.698;23.298;2022-10-16T09:40:53;6.23;;;3.43;;
6095;SDS011;25081;42.698;23.298;2022-10-16T09:43:06;4.97;;;3.70;;
6095;SDS011;25081;42.698;23.298;2022-10-16T09:45:23;6.23;;;3.70;;
6095;SDS011;25081;42.698;23.298;2022-10-16T09:47:35;6.83;;;3.33;;
6095;SDS011;25081;42.698;23.298;2022-10-16T09:49:51;5.90;;;3.87;;
6095;SDS011;25081;42.698;23.298;2022-10-16T09:52:05;5.70;;;4.50;;
6095;SDS011;25081;42.698;23.298;2022-10-16T09:54:16;3.80;;;3.03;;
6095;SDS011;25081;42.698;23.298;2022-10-16T09:56:26;4.33;;;3.73;;
6095;SDS011;25081;42.698;23.298;2022-10-16T09:58:36;3.87;;;2.97;;
6095;SDS011;25081;42.698;23.298;2022-10-16T10:00:49;5.47;;;3.70;;
6095;SDS011;25081;42.698;23.298;2022-10-16T10:03:00;4.90;;;3.73;;
6095;SDS011;25081;42.698;23.298;2022-10-16T10:05:18;5.50;;;3.30;;
6095;SDS011;25081;42.698;23.298;2022-10-16T10:07:31;4.00;;;3.07;;
6095;SDS011;25081;42.698;23.298;2022-10-16T10:09:39;5.60;;;3.30;;
6095;SDS011;25081;42.698;23.298;2022-10-16T10:11:51;4.30;;;3.53;;
6095;SDS011;25081;42.698;23.298;2022-10-16T10:14:04;5.30;;;3.67;;
6095;SDS011;25081;42.698;23.298;2022-10-16T10:16:24;5.40;;;3.83;;
6095;SDS011;25081;42.698;23.298;2022-10-16T10:18:34;5.20;;;4.67;;
6095;SDS011;25081;42.698;23.298;2022-10-16T10:20:45;4.90;;;3.70;;
6095;SDS011;25081;42.698;23.298;2022-10-16T10:22:55;4.93;;;4.20;;
6095;SDS011;25081;42.698;23.298;2022-10-16T10:25:14;8.50;;;3.90;;
6095;SDS011;25081;42.698;23.298;2022-10-16T10:27:35;5.73;;;3.97;;
6095;SDS011;25081;42.698;23.298;2022-10-16T10:29:48;7.63;;;4.40;;
6095;SDS011;25081;42.698;23.298;2022-10-16T10:32:01;8.30;;;3.80;;
6095;SDS011;25081;42.698;23.298;2022-10-16T10:34:16;5.47;;;3.70;;
6095;SDS011;25081;42.698;23.298;2022-10-16T10:36:27;5.97;;;3.67;;
6095;SDS011;25081;42.698;23.298;2022-10-16T10:38:41;5.13;;;4.30;;
6095;SDS011;25081;42.698;23.298;2022-10-16T10:40:52;5.30;;;3.90;;
6095;SDS011;25081;42.698;23.298;2022-10-16T10:43:04;6.00;;;3.53;;
6095;SDS011;25081;42.698;23.298;2022-10-16T10:45:18;5.50;;;4.30;;
6095;SDS011;25081;42.698;23.298;2022-10-16T10:47:31;4.43;;;3.80;;
6095;SDS011;25081;42.698;23.298;2022-10-16T10:49:46;6.07;;;4.07;;
6095;SDS011;25081;42.698;23.298;2022-10-16T10:51:59;4.60;;;3.53;;
6095;SDS011;25081;42.698;23.298;2022-10-16T10:54:13;5.57;;;3.97;;
6095;SDS011;25081;42.698;23.298;2022-10-16T10:56:27;5.37;;;3.80;;
6095;SDS011;25081;42.698;23.298;2022-10-16T10:58:42;5.70;;;4.20;;
6095;SDS011;25081;42.698;23.298;2022-10-16T11:00:55;5.47;;;4.07;;
6095;SDS011;25081;42.698;23.298;2022-10-16T11:03:07;5.47;;;3.80;;
6095;SDS011;25081;42.698;23.298;2022-10-16T11:05:21;5.80;;;3.60;;
6095;SDS011;25081;42.698;23.298;2022-10-16T11:07:37;6.83;;;4.63;;
6095;SDS011;25081;42.698;23.298;2022-10-16T11:09:48;6.23;;;4.07;;
6095;SDS011;25081;42.698;23.298;2022-10-16T11:11:59;5.63;;;4.70;;
6095;SDS011;25081;42.698;23.298;2022-10-16T11:14:11;6.23;;;4.20;;
6095;SDS011;25081;42.698;23.298;2022-10-16T11:16:23;5.17;;;3.93;;
6095;SDS011;25081;42.698;23.298;2022-10-16T11:18:37;7.90;;;4.17;;
6095;SDS011;25081;42.698;23.298;2022-10-16T11:20:49;5.23;;;4.10;;
6095;SDS011;25081;42.698;23.298;2022-10-16T11:22:59;5.93;;;4.00;;
6095;SDS011;25081;42.698;23.298;2022-10-16T11:25:12;9.07;;;4.50;;
6095;SDS011;25081;42.698;23.298;2022-10-16T11:27:24;4.80;;;3.43;;
6095;SDS011;25081;42.698;23.298;2022-10-16T11:29:43;6.50;;;4.23;;
6095;SDS011;25081;42.698;23.298;2022-10-16T11:31:45;6.13;;;4.47;;
6095;SDS011;25081;42.698;23.298;2022-10-16T11:33:57;4.67;;;3.93;;
6095;SDS011;25081;42.698;23.298;2022-10-16T11:36:11;6.63;;;4.30;;
6095;SDS011;25081;42.698;23.298;2022-10-16T11:38:23;7.60;;;4.20;;
6095;SDS011;25081;42.698;23.298;2022-10-16T11:40:33;5.70;;;4.47;;
6095;SDS011;25081;42.698;23.298;2022-10-16T11:42:44;5.10;;;4.07;;
6095;SDS011;25081;42.698;23.298;2022-10-16T11:44:55;5.20;;;4.17;;
6095;SDS011;25081;42.698;23.298;2022-10-16T11:47:09;5.80;;;3.50;;
6095;SDS011;25081;42.698;23.298;2022-10-16T11:49:20;7.57;;;4.03;;
6095;SDS011;25081;42.698;23.298;2022-10-16T11:51:31;6.00;;;3.90;;
6095;SDS011;25081;42.698;23.298;2022-10-16T11:53:44;4.93;;;3.90;;
6095;SDS011;25081;42.698;23.298;2022-10-16T11:55:55;7.80;;;3.73;;
6095;SDS011;25081;42.698;23.298;2022-10-16T11:58:06;6.67;;;3.93;;
6095;SDS011;25081;42.698;23.298;2022-10-16T12:00:19;5.13;;;4.00;;
6095;SDS011;25081;42.698;23.298;2022-10-16T12:02:32;4.77;;;4.00;;
6095;SDS011;25081;42.698;23.298;2022-10-16T12:04:45;5.17;;;4.10;;
6095;SDS011;25081;42.698;23.298;2022-10-16T12:06:57;7.83;;;4.30;;
6095;SDS011;25081;42.698;23.298;2022-10-16T12:09:09;5.87;;;3.97;;
6095;SDS011;25081;42.698;23.298;2022-10-16T12:11:32;3.83;;;3.43;;
6095;SDS011;25081;42.698;23.298;2022-10-16T12:13:43;5.70;;;4.00;;
6095;SDS011;25081;42.698;23.298;2022-10-16T12:16:03;4.60;;;3.43;;
6095;SDS011;25081;42.698;23.298;2022-10-16T12:18:21;6.00;;;3.93;;
6095;SDS011;25081;42.698;23.298;2022-10-16T12:20:31;4.23;;;3.50;;
6095;SDS011;25081;42.698;23.298;2022-10-16T12:22:47;5.93;;;4.53;;
6095;SDS011;25081;42.698;23.298;2022-10-16T12:24:57;5.87;;;3.40;;
6095;SDS011;25081;42.698;23.298;2022-10-16T12:27:19;7.90;;;4.07;;
6095;SDS011;25081;42.698;23.298;2022-10-16T12:29:32;7.13;;;4.67;;
6095;SDS011;25081;42.698;23.298;2022-10-16T12:31:45;7.27;;;3.80;;
6095;SDS011;25081;42.698;23.298;2022-10-16T12:33:57;5.83;;;3.67;;
6095;SDS011;25081;42.698;23.298;2022-10-16T12:36:08;5.80;;;3.93;;
6095;SDS011;25081;42.698;23.298;2022-10-16T12:38:19;6.60;;;4.00;;
6095;SDS011;25081;42.698;23.298;2022-10-16T12:40:29;5.73;;;3.43;;
6095;SDS011;25081;42.698;23.298;2022-10-16T12:42:39;6.43;;;2.90;;
6095;SDS011;25081;42.698;23.298;2022-10-16T12:44:50;4.37;;;3.60;;
6095;SDS011;25081;42.698;23.298;2022-10-16T12:47:00;7.87;;;4.07;;
6095;SDS011;25081;42.698;23.298;2022-10-16T12:49:29;5.13;;;3.60;;
6095;SDS011;25081;42.698;23.298;2022-10-16T12:51:39;5.60;;;3.20;;
6095;SDS011;25081;42.698;23.298;2022-10-16T12:53:58;6.17;;;3.70;;
6095;SDS011;25081;42.698;23.298;2022-10-16T12:56:12;3.60;;;2.93;;
6095;SDS011;25081;42.698;23.298;2022-10-16T12:58:27;6.97;;;4.00;;
6095;SDS011;25081;42.698;23.298;2022-10-16T13:00:43;7.03;;;3.67;;
6095;SDS011;25081;42.698;23.298;2022-10-16T13:05:34;3.97;;;2.93;;
6095;SDS011;25081;42.698;23.298;2022-10-16T13:07:49;5.13;;;2.80;;
6095;SDS011;25081;42.698;23.298;2022-10-16T13:10:04;5.07;;;3.70;;